Aérodrome :
LOGIN :

S'inscrire | Disclaimer

   EN    FR    IT 

 










Légende :    VFR   VFR Marginal   IFR   IFR Intensif   IFR Très Intensif
Visi : 
Plafond : 
>= 8 km
>= 3000ft
5 à 8 km
1000 à 3000 ft
1500m à 5 km
500 à 1000 ft
800 à 1500m
200 à 500 ft
< 800m
< 200 ft
Symboles :   Orages  Brouillard  Fortes neiges  Fortes précipitations  Vent > 20 kt
SIGMETs :   Divers  Orages  Givrage  Turbulence  Onde Orograph.  Cendres Volcan.






- Altitude de l'aérodrome : 302 ft
- Code IATA : CGN


EDDK - Cologne Bonn

DERNIER METAR :
  • 082250Z 16006KT 9999 BKN028 04/01 Q1003 NOSIG

METARs EXPIRÉS :
  • 082220Z 12003KT 080V150 9999 BKN028 03/01 Q1003 NOSIG
  • 082150Z 17005KT 9999 BKN028 03/01 Q1002 NOSIG
  • 082120Z 19006KT 150V210 9999 BKN028 04/01 Q1002 NOSIG
  • 082050Z 19005KT 9999 BKN028 04/01 Q1002 NOSIG
  • 082020Z 15005KT 9999 BKN028 04/01 Q1002 NOSIG

TAF TAF EDDK
Valide du 08 à 18h jusqu'au 10 à 00h UTC


081700Z 0818/0924 16006KT 9999 BKN030
PROB30
TEMPO 0914/0919 RA



MET'MAP, la Météo Aéronautique d'un coup d'oeil ! - Copyright ORBIFLY Décembre 2007 - Disclaimer

ORBIFLY MET'MAP TEAM :

Programmation & Développement : Alexandra Zaïnal
Sur une idée originale de : Baudouin d'Aumeries
Assistance à la programmation : Marc-Olivier Méhu
Soutien technique & logistique : Manuel Goepfert

Contact : metmap@orbifly.com




SOURCES & CREDITS :

   NOAA